Terminal Aerodrome Forecast
Issued by NWS Paducah, KY

Home | Current Version | Previous Version | Text Only | Print | Product List | Glossary On
Versions: 1 2 3 4 5 6 7 8 9 10 11 12 13
000
FTUS43 KPAH 011720
TAFEVV
TAF
KEVV 011720Z 0118/0218 36009KT P6SM SKC
     FM020000 00000KT P6SM SCT200
     FM021300 24004KT P6SM BKN200=

USA.gov is the U.S. government's official web portal to all federal, state and local government web resources and services.